createdAt,value
2023-04-06T00:00:36.008Z,3.22
2023-04-06T00:05:37.576Z,3.20
2023-04-06T00:10:39.226Z,3.15
2023-04-06T00:15:40.782Z,3.05
2023-04-06T00:20:42.376Z,3.09
2023-04-06T00:25:43.955Z,3.03
2023-04-06T00:30:45.471Z,3.01
2023-04-06T00:35:47.046Z,3.13
2023-04-06T00:40:48.703Z,3.04
2023-04-06T00:45:50.470Z,3.00
2023-04-06T00:50:52.169Z,3.03
2023-04-06T00:55:53.814Z,2.99
2023-04-06T01:00:57.764Z,2.95
2023-04-06T01:05:59.939Z,2.88
2023-04-06T01:11:09.477Z,2.84
2023-04-06T01:16:12.309Z,2.83
2023-04-06T01:21:38.562Z,2.71
2023-04-06T01:27:15.710Z,2.37
2023-04-06T01:32:23.439Z,2.37
2023-04-06T01:37:27.445Z,2.22
2023-04-06T01:42:32.275Z,2.20
2023-04-06T01:47:34.590Z,2.10
2023-04-06T01:52:36.560Z,1.93
2023-04-06T01:57:38.565Z,1.99
2023-04-06T02:02:49.057Z,2.46
2023-04-06T02:07:57.021Z,2.44
2023-04-06T02:13:06.578Z,2.12
2023-04-06T02:18:09.668Z,2.11
2023-04-06T02:23:12.492Z,2.51
2023-04-06T02:28:15.112Z,2.72
2023-04-06T02:33:16.951Z,2.46
2023-04-06T02:38:21.463Z,2.14
2023-04-06T02:43:23.609Z,1.98
2023-04-06T02:48:30.446Z,1.77
2023-04-06T02:53:32.515Z,1.61
2023-04-06T02:58:35.288Z,1.72
2023-04-06T03:03:37.574Z,1.74
2023-04-06T03:08:45.936Z,1.57
2023-04-06T03:13:48.697Z,1.46
2023-04-06T03:18:50.614Z,1.33
2023-04-06T03:23:53.348Z,1.14
2023-04-06T03:28:55.017Z,1.15
2023-04-06T03:34:01.672Z,1.22
2023-04-06T03:39:07.510Z,1.45
2023-04-06T03:44:13.816Z,1.60
2023-04-06T03:49:15.745Z,1.34
2023-04-06T03:54:21.608Z,1.32
2023-04-06T03:59:23.491Z,1.15
2023-04-06T04:04:28.387Z,1.20
2023-04-06T04:09:30.019Z,1.40
2023-04-06T04:14:32.521Z,1.55
2023-04-06T04:19:34.706Z,1.62
2023-04-06T04:24:37.179Z,1.60
2023-04-06T04:29:39.037Z,1.57
2023-04-06T04:34:44.264Z,1.57
2023-04-06T04:39:54.333Z,1.54
2023-04-06T04:44:56.020Z,1.43
2023-04-06T04:50:08.983Z,1.34
2023-04-06T04:55:14.905Z,1.38
2023-04-06T05:00:19.504Z,1.44
2023-04-06T05:05:21.437Z,1.70
2023-04-06T05:10:25.016Z,1.71
2023-04-06T05:15:31.706Z,1.87
2023-04-06T05:20:40.576Z,1.93
2023-04-06T05:25:43.742Z,1.95
2023-04-06T05:30:54.048Z,1.91
2023-04-06T05:35:56.937Z,1.99
2023-04-06T05:40:59.016Z,2.46
2023-04-06T05:46:05.337Z,2.71
2023-04-06T05:51:07.029Z,3.35
2023-04-06T05:56:17.773Z,3.68
2023-04-06T06:01:20.291Z,3.95
2023-04-06T06:06:23.095Z,4.20
2023-04-06T06:11:40.037Z,4.46
2023-04-06T06:16:42.460Z,4.60
2023-04-06T06:21:47.266Z,4.82
2023-04-06T06:26:50.274Z,4.99
2023-04-06T06:31:54.082Z,5.29
2023-04-06T06:36:56.220Z,5.84
2023-04-06T06:41:58.208Z,6.03
2023-04-06T06:47:19.000Z,6.68
2023-04-06T06:52:20.720Z,7.11
2023-04-06T06:57:22.389Z,7.81
2023-04-06T07:02:25.119Z,7.87
2023-04-06T07:07:27.226Z,8.92
2023-04-06T07:12:29.044Z,9.37
2023-04-06T07:17:30.707Z,9.53
2023-04-06T07:22:32.627Z,9.10
2023-04-06T07:27:34.496Z,9.31
2023-04-06T07:32:37.542Z,9.85
2023-04-06T07:37:39.620Z,10.56
2023-04-06T07:42:41.360Z,10.85
2023-04-06T07:47:43.699Z,11.82
2023-04-06T07:52:45.394Z,12.31
2023-04-06T07:57:47.239Z,12.31
2023-04-06T08:02:49.084Z,11.09
2023-04-06T08:07:51.182Z,11.12
2023-04-06T08:12:53.443Z,12.02
2023-04-06T08:17:55.070Z,11.60
2023-04-06T08:22:56.662Z,13.08
2023-04-06T08:27:58.415Z,11.47
2023-04-06T08:33:00.053Z,11.71
2023-04-06T08:38:01.793Z,13.87
2023-04-06T08:43:06.575Z,13.80
2023-04-06T08:48:09.285Z,12.36
2023-04-06T08:53:12.895Z,13.09
2023-04-06T08:58:24.062Z,12.95
2023-04-06T09:03:38.287Z,13.46
2023-04-06T09:08:41.931Z,13.42
2023-04-06T09:13:47.438Z,14.21
2023-04-06T09:18:50.571Z,14.25
2023-04-06T09:24:02.926Z,14.40
2023-04-06T09:29:04.723Z,15.79
2023-04-06T09:34:06.825Z,15.15
2023-04-06T09:39:08.752Z,16.83
2023-04-06T09:44:13.716Z,17.17
2023-04-06T09:49:15.390Z,17.34
2023-04-06T09:54:20.675Z,16.60
2023-04-06T09:59:45.146Z,15.62
2023-04-06T10:05:24.226Z,18.19
2023-04-06T10:10:26.654Z,16.95
2023-04-06T10:15:30.031Z,16.54
2023-04-06T10:20:40.981Z,18.26
2023-04-06T10:25:57.278Z,18.91
2023-04-06T10:31:01.091Z,18.31
2023-04-06T10:36:16.716Z,19.12
2023-04-06T10:41:18.510Z,19.94
2023-04-06T10:46:32.531Z,18.44
2023-04-06T10:51:38.793Z,17.15
2023-04-06T10:56:40.502Z,17.16
2023-04-06T11:01:45.806Z,16.58
2023-04-06T11:06:49.125Z,16.79
2023-04-06T11:11:50.846Z,16.63
2023-04-06T11:16:54.915Z,16.34
2023-04-06T11:21:59.408Z,16.11
2023-04-06T11:27:01.537Z,16.05
2023-04-06T11:32:04.960Z,16.73
2023-04-06T11:37:11.560Z,16.65
2023-04-06T11:42:13.304Z,16.96
2023-04-06T11:47:15.123Z,16.73
2023-04-06T11:52:28.418Z,16.88
2023-04-06T11:57:30.200Z,17.03
2023-04-06T12:02:32.040Z,16.55
2023-04-06T12:07:34.102Z,17.13
2023-04-06T12:12:35.974Z,16.22
2023-04-06T12:17:37.622Z,16.67
2023-04-06T12:22:39.677Z,16.52
2023-04-06T12:27:41.409Z,16.63
2023-04-06T12:32:43.069Z,16.40
2023-04-06T12:37:44.953Z,16.03
2023-04-06T12:42:47.194Z,16.61
2023-04-06T12:47:49.123Z,16.82
2023-04-06T12:52:50.855Z,16.97
2023-04-06T12:57:52.541Z,16.85
2023-04-06T13:02:54.241Z,16.85
2023-04-06T13:07:56.026Z,16.48
2023-04-06T13:12:57.962Z,15.74
2023-04-06T13:17:59.628Z,15.73
2023-04-06T13:23:01.525Z,15.44
2023-04-06T13:28:03.430Z,15.38
2023-04-06T13:33:05.325Z,15.37
2023-04-06T13:38:07.275Z,15.00
2023-04-06T13:43:09.299Z,14.98
2023-04-06T13:48:11.653Z,14.15
2023-04-06T13:53:14.018Z,13.26
2023-04-06T13:58:15.646Z,13.04
2023-04-06T14:03:17.421Z,12.96
2023-04-06T14:08:19.035Z,13.02
2023-04-06T14:13:21.120Z,13.01
2023-04-06T14:18:23.245Z,13.10
2023-04-06T14:23:24.951Z,12.96
2023-04-06T14:28:26.577Z,12.90
2023-04-06T14:33:28.453Z,12.81
2023-04-06T14:38:30.005Z,12.79
2023-04-06T14:43:31.626Z,12.63
2023-04-06T14:48:33.460Z,12.25
2023-04-06T14:53:35.351Z,11.90
2023-04-06T14:58:37.152Z,11.55
2023-04-06T15:03:38.831Z,11.43
2023-04-06T15:08:40.710Z,11.44
2023-04-06T15:13:43.771Z,11.32
2023-04-06T15:18:45.499Z,11.16
2023-04-06T15:23:47.463Z,11.12
2023-04-06T15:28:49.466Z,11.06
2023-04-06T15:33:51.110Z,11.17
2023-04-06T15:38:53.353Z,11.01
2023-04-06T15:43:55.496Z,10.67
2023-04-06T15:48:57.610Z,10.55
2023-04-06T15:53:59.203Z,10.51
2023-04-06T15:59:00.872Z,10.31
2023-04-06T16:04:03.200Z,10.24
2023-04-06T16:09:05.054Z,10.24
2023-04-06T16:14:06.661Z,10.19
2023-04-06T16:19:08.250Z,10.18
2023-04-06T16:24:09.993Z,10.11
2023-04-06T16:29:11.891Z,10.06
2023-04-06T16:34:14.290Z,9.94
2023-04-06T16:39:16.101Z,9.95
2023-04-06T16:44:17.939Z,9.95
2023-04-06T16:49:19.665Z,9.96
2023-04-06T16:54:21.420Z,9.90
2023-04-06T16:59:22.961Z,9.80
2023-04-06T17:04:24.771Z,9.67
2023-04-06T17:09:26.358Z,9.62
2023-04-06T17:14:28.111Z,9.61
2023-04-06T17:19:30.016Z,9.52
2023-04-06T17:24:31.836Z,9.30
2023-04-06T17:29:35.902Z,9.32
2023-04-06T17:34:37.470Z,9.29
2023-04-06T17:39:39.282Z,9.12
2023-04-06T17:44:41.180Z,9.00
2023-04-06T17:49:43.034Z,9.04
2023-04-06T17:54:44.649Z,9.03
2023-04-06T17:59:46.326Z,9.03
2023-04-06T18:04:55.186Z,8.98
2023-04-06T18:09:57.187Z,8.99
2023-04-06T18:14:58.843Z,9.07
2023-04-06T18:20:00.543Z,8.98
2023-04-06T18:25:03.815Z,9.00
2023-04-06T18:30:06.037Z,9.05
2023-04-06T18:35:08.465Z,8.99
2023-04-06T18:40:31.706Z,8.97
2023-04-06T18:45:34.595Z,8.98
2023-04-06T18:50:36.283Z,9.02
2023-04-06T18:55:37.838Z,8.98
2023-04-06T19:00:42.758Z,8.96
2023-04-06T19:05:44.426Z,8.93
2023-04-06T19:10:45.919Z,8.93
2023-04-06T19:15:47.434Z,8.94
2023-04-06T19:20:48.981Z,8.88
2023-04-06T19:25:50.641Z,8.86
2023-04-06T19:30:52.323Z,8.89
2023-04-06T19:35:53.955Z,8.84
2023-04-06T19:40:55.562Z,8.82
2023-04-06T19:45:57.269Z,8.85
2023-04-06T19:50:58.827Z,8.81
2023-04-06T19:56:00.391Z,8.84
2023-04-06T20:01:02.438Z,8.90
2023-04-06T20:06:04.200Z,8.86
2023-04-06T20:11:06.178Z,8.83
2023-04-06T20:16:08.025Z,8.85
2023-04-06T20:21:10.273Z,8.83
2023-04-06T20:26:12.050Z,8.86
2023-04-06T20:31:13.753Z,8.88
2023-04-06T20:36:15.318Z,8.84
2023-04-06T20:41:16.873Z,8.88
2023-04-06T20:46:18.770Z,8.92
2023-04-06T20:51:21.667Z,8.92
2023-04-06T20:56:23.420Z,9.00
2023-04-06T21:01:24.992Z,8.95
2023-04-06T21:06:27.470Z,8.95
2023-04-06T21:11:29.095Z,8.95
2023-04-06T21:16:30.744Z,8.88
2023-04-06T21:21:32.358Z,8.90
2023-04-06T21:26:35.017Z,8.90
2023-04-06T21:31:36.851Z,8.86
2023-04-06T21:36:39.824Z,8.88
2023-04-06T21:41:41.514Z,8.90
2023-04-06T21:46:43.718Z,8.95
2023-04-06T21:51:45.973Z,8.98
2023-04-06T21:56:48.183Z,8.94
2023-04-06T22:01:50.078Z,8.94
2023-04-06T22:06:51.669Z,8.92
2023-04-06T22:11:53.799Z,8.92
2023-04-06T22:16:55.451Z,8.97
2023-04-06T22:21:57.715Z,8.95
2023-04-06T22:26:59.543Z,8.92
2023-04-06T22:32:01.260Z,9.09
2023-04-06T22:37:03.362Z,9.06
2023-04-06T22:42:05.096Z,9.03
2023-04-06T22:47:06.800Z,9.14
2023-04-06T22:52:12.138Z,9.08
2023-04-06T22:57:13.965Z,9.18
2023-04-06T23:02:15.529Z,9.18
2023-04-06T23:07:17.550Z,9.14
2023-04-06T23:12:19.238Z,9.20
2023-04-06T23:17:20.955Z,9.20
2023-04-06T23:22:22.981Z,9.18
2023-04-06T23:27:24.569Z,9.21
2023-04-06T23:32:26.245Z,9.23
2023-04-06T23:37:27.889Z,9.20
2023-04-06T23:42:29.519Z,9.22
2023-04-06T23:47:31.609Z,9.15
2023-04-06T23:52:33.553Z,9.22
2023-04-06T23:57:35.218Z,9.21
